Time;durP1;ratioP1;P1;durP2;ratioP2;P2;SDS_P1;SDS_P2;PMS_P1;PMS_P2;Temp;Humidity;BMP_temperature;BMP_pressure;BME280_temperature;BME280_humidity;BME280_pressure;Samples;Min_cycle;Max_cycle;Signal;HPM_P1;HPM_P2
2022/03/20 00:01:10;;;;;;;8.95;3.83;;;;;;;;;;5021510;28;20454;-75
2022/03/20 00:03:36;;;;;;;10.80;3.97;;;;;;;;;;5030332;28;20453;-75
2022/03/20 00:06:03;;;;;;;8.77;3.28;;;;;;;;;;5013194;28;20034;-75
2022/03/20 00:08:30;;;;;;;7.25;3.63;;;;;;;;;;5027708;28;20824;-75
2022/03/20 00:10:59;;;;;;;8.07;4.03;;;;;;;;;;5029863;28;20606;-75
2022/03/20 00:13:27;;;;;;;5.60;3.30;;;;;;;;;;5022048;28;20029;-74
2022/03/20 00:15:53;;;;;;;7.50;3.83;;;;;;;;;;5028021;28;20068;-75
2022/03/20 00:18:21;;;;;;;12.27;4.85;;;;;;;;;;5026373;28;20034;-75
2022/03/20 00:20:51;;;;;;;8.68;4.35;;;;;;;;;;5029489;28;20075;-75
2022/03/20 00:23:18;;;;;;;10.95;3.83;;;;;;;;;;5027775;28;20439;-75
2022/03/20 00:25:45;;;;;;;8.25;3.90;;;;;;;;;;5030118;28;20041;-75
2022/03/20 00:28:15;;;;;;;12.18;4.70;;;;;;;;;;5029223;28;20084;-75
2022/03/20 00:30:42;;;;;;;6.70;3.88;;;;;;;;;;5023377;28;20036;-75
2022/03/20 00:33:08;;;;;;;5.68;3.33;;;;;;;;;;5006682;28;20040;-75
2022/03/20 00:35:34;;;;;;;7.82;4.18;;;;;;;;;;5026526;28;20035;-75
2022/03/20 00:38:00;;;;;;;7.72;3.95;;;;;;;;;;5029676;28;20028;-74
2022/03/20 00:40:27;;;;;;;6.10;3.67;;;;;;;;;;5024654;28;20025;-75
2022/03/20 00:42:53;;;;;;;11.40;5.43;;;;;;;;;;5029905;28;20062;-74
2022/03/20 00:45:19;;;;;;;8.90;4.22;;;;;;;;;;5029020;28;20045;-75
2022/03/20 00:47:45;;;;;;;8.07;3.58;;;;;;;;;;5029747;28;20347;-75
2022/03/20 00:50:11;;;;;;;9.55;3.97;;;;;;;;;;5026124;28;20041;-75
2022/03/20 00:52:38;;;;;;;10.20;4.78;;;;;;;;;;5029392;28;20026;-75
2022/03/20 00:55:04;;;;;;;9.98;3.92;;;;;;;;;;5023068;28;20069;-75
2022/03/20 00:57:30;;;;;;;10.73;4.30;;;;;;;;;;5022518;28;20461;-75
2022/03/20 00:59:56;;;;;;;9.55;4.18;;;;;;;;;;5030875;28;20030;-75
2022/03/20 01:02:23;;;;;;;8.07;4.05;;;;;;;;;;5028769;28;20057;-75
2022/03/20 01:04:49;;;;;;;7.88;4.20;;;;;;;;;;5013267;28;20034;-75
2022/03/20 01:07:15;;;;;;;7.20;4.20;;;;;;;;;;5031665;28;20037;-74
2022/03/20 01:09:41;;;;;;;10.00;4.85;;;;;;;;;;5034705;28;20057;-74
2022/03/20 01:12:08;;;;;;;11.75;5.30;;;;;;;;;;5034870;28;20052;-74
2022/03/20 01:14:34;;;;;;;9.20;4.72;;;;;;;;;;5036276;28;20033;-75
2022/03/20 01:17:00;;;;;;;9.93;3.88;;;;;;;;;;5028098;28;20029;-75
2022/03/20 01:19:27;;;;;;;9.57;4.15;;;;;;;;;;5032923;28;20485;-75
2022/03/20 01:21:56;;;;;;;13.68;4.45;;;;;;;;;;5031892;28;20539;-74
2022/03/20 01:24:24;;;;;;;9.75;4.50;;;;;;;;;;5034689;28;20026;-74
2022/03/20 01:26:50;;;;;;;5.68;3.60;;;;;;;;;;5031399;28;20045;-74
2022/03/20 01:29:16;;;;;;;9.65;4.10;;;;;;;;;;5035117;28;20030;-74
2022/03/20 01:31:42;;;;;;;11.32;4.05;;;;;;;;;;5031736;28;20041;-74
2022/03/20 01:34:08;;;;;;;15.50;4.97;;;;;;;;;;5034372;28;20026;-74
2022/03/20 01:36:34;;;;;;;12.68;4.97;;;;;;;;;;5026016;28;20021;-74
2022/03/20 01:39:01;;;;;;;11.02;4.60;;;;;;;;;;5034444;28;20048;-74
2022/03/20 01:41:27;;;;;;;8.50;4.35;;;;;;;;;;5029652;28;20556;-74
2022/03/20 01:43:54;;;;;;;7.88;3.97;;;;;;;;;;5033069;28;20030;-73
2022/03/20 01:46:20;;;;;;;5.57;3.97;;;;;;;;;;5027253;28;20095;-74
2022/03/20 01:48:47;;;;;;;14.55;4.40;;;;;;;;;;5014105;28;20052;-74
2022/03/20 01:51:14;;;;;;;14.30;5.32;;;;;;;;;;5019881;28;20049;-76
2022/03/20 01:53:40;;;;;;;12.25;4.50;;;;;;;;;;5030980;28;20029;-76
2022/03/20 01:56:07;;;;;;;6.63;4.32;;;;;;;;;;5032778;28;20034;-76
2022/03/20 01:58:33;;;;;;;9.07;4.55;;;;;;;;;;5013942;28;20112;-75
2022/03/20 02:01:00;;;;;;;15.18;5.32;;;;;;;;;;5032838;28;20348;-75
2022/03/20 02:03:26;;;;;;;13.15;5.10;;;;;;;;;;5015464;28;20048;-75
2022/03/20 02:05:52;;;;;;;14.02;5.50;;;;;;;;;;5025849;28;20472;-76
2022/03/20 02:08:25;;;;;;;9.70;5.38;;;;;;;;;;5031023;28;20037;-76
2022/03/20 02:10:52;;;;;;;12.70;5.18;;;;;;;;;;5006089;28;20048;-76
2022/03/20 02:13:21;;;;;;;11.52;5.78;;;;;;;;;;5018653;28;20026;-76
2022/03/20 02:15:47;;;;;;;10.80;5.15;;;;;;;;;;5030269;28;20061;-76
2022/03/20 02:18:14;;;;;;;10.73;5.88;;;;;;;;;;5030071;28;20029;-76
2022/03/20 02:20:41;;;;;;;12.73;5.50;;;;;;;;;;5014680;28;20045;-75
2022/03/20 02:23:07;;;;;;;21.42;5.88;;;;;;;;;;5014169;28;20033;-76
2022/03/20 02:25:33;;;;;;;16.13;6.55;;;;;;;;;;5027172;28;20083;-76
2022/03/20 02:27:59;;;;;;;8.52;5.50;;;;;;;;;;5027778;28;20437;-76
2022/03/20 02:30:30;;;;;;;15.38;5.88;;;;;;;;;;5029828;28;20029;-76
2022/03/20 02:32:56;;;;;;;13.40;6.80;;;;;;;;;;5031199;28;20025;-76
2022/03/20 02:35:22;;;;;;;13.68;6.32;;;;;;;;;;5014113;28;20029;-76
2022/03/20 02:37:53;;;;;;;12.15;6.03;;;;;;;;;;5032104;28;20366;-76
2022/03/20 02:40:21;;;;;;;13.82;6.47;;;;;;;;;;5030137;28;20086;-76
2022/03/20 02:42:48;;;;;;;14.30;6.53;;;;;;;;;;5032513;28;20083;-76
2022/03/20 02:45:20;;;;;;;14.57;6.15;;;;;;;;;;5030340;28;20033;-75
2022/03/20 02:47:47;;;;;;;15.40;6.50;;;;;;;;;;5028916;28;20030;-74
2022/03/20 02:50:17;;;;;;;12.18;6.05;;;;;;;;;;5030600;28;20074;-76
2022/03/20 02:52:53;;;;;;;10.77;6.78;;;;;;;;;;5031875;28;20538;-76
2022/03/20 02:55:23;;;;;;;12.25;6.95;;;;;;;;;;5025558;28;20025;-76
2022/03/20 02:57:49;;;;;;;14.77;7.88;;;;;;;;;;5025370;28;20079;-74
2022/03/20 03:00:22;;;;;;;13.85;6.75;;;;;;;;;;5029026;28;20079;-76
2022/03/20 03:02:48;;;;;;;16.70;6.53;;;;;;;;;;5030674;28;20033;-76
2022/03/20 03:05:15;;;;;;;13.43;6.97;;;;;;;;;;5028258;28;20088;-75
2022/03/20 03:13:14;;;;;;;13.82;7.25;;;;;;;;;;5013566;28;20540;-75
2022/03/20 03:15:40;;;;;;;17.60;7.90;;;;;;;;;;5026492;28;20466;-75
2022/03/20 03:18:06;;;;;;;14.23;7.93;;;;;;;;;;5026976;28;20059;-74
2022/03/20 03:20:33;;;;;;;15.00;7.88;;;;;;;;;;5027879;28;20030;-75
2022/03/20 03:22:59;;;;;;;13.48;7.38;;;;;;;;;;5012822;28;20112;-76
2022/03/20 03:25:25;;;;;;;14.10;7.38;;;;;;;;;;5022985;28;20024;-76
2022/03/20 03:27:52;;;;;;;14.05;7.28;;;;;;;;;;5031214;28;20385;-76
2022/03/20 03:30:18;;;;;;;12.52;6.93;;;;;;;;;;5029302;28;20029;-75
2022/03/20 03:32:45;;;;;;;13.55;7.00;;;;;;;;;;5021772;28;20037;-76
2022/03/20 03:37:57;;;;;;;16.05;7.85;;;;;;;;;;5026055;28;20052;-75
2022/03/20 03:40:23;;;;;;;14.43;6.75;;;;;;;;;;5029438;28;20029;-75
2022/03/20 03:42:49;;;;;;;14.90;7.38;;;;;;;;;;5030621;28;20045;-76
2022/03/20 03:45:15;;;;;;;15.95;7.93;;;;;;;;;;5011527;28;20132;-76
2022/03/20 03:47:41;;;;;;;21.52;8.40;;;;;;;;;;5027257;28;20452;-76
2022/03/20 03:50:11;;;;;;;13.98;8.57;;;;;;;;;;5029210;28;20025;-76
2022/03/20 03:52:37;;;;;;;14.10;8.43;;;;;;;;;;5031557;28;20033;-75
2022/03/20 03:55:07;;;;;;;20.73;8.88;;;;;;;;;;5010976;28;20041;-76
2022/03/20 03:57:33;;;;;;;17.35;8.23;;;;;;;;;;5028882;28;20477;-76
2022/03/20 03:59:59;;;;;;;14.45;8.48;;;;;;;;;;5029169;28;20125;-76
2022/03/20 04:02:25;;;;;;;20.00;8.00;;;;;;;;;;5012597;28;20081;-75
2022/03/20 04:04:51;;;;;;;14.50;8.30;;;;;;;;;;5013043;28;20030;-76
2022/03/20 04:07:18;;;;;;;14.45;8.15;;;;;;;;;;5022899;28;20041;-76
2022/03/20 04:09:46;;;;;;;14.80;8.25;;;;;;;;;;5028612;28;20041;-76
2022/03/20 04:12:16;;;;;;;13.20;8.10;;;;;;;;;;5015618;28;20029;-76
2022/03/20 04:14:42;;;;;;;15.80;8.15;;;;;;;;;;5013605;28;20036;-75
2022/03/20 04:17:10;;;;;;;14.75;8.80;;;;;;;;;;5019993;28;20041;-75
2022/03/20 04:19:36;;;;;;;16.10;8.70;;;;;;;;;;5030785;28;20030;-75
2022/03/20 04:22:03;;;;;;;17.73;10.85;;;;;;;;;;5000833;28;20084;-75
2022/03/20 04:24:29;;;;;;;15.15;8.57;;;;;;;;;;5012095;28;20034;-74
2022/03/20 04:26:55;;;;;;;19.48;9.48;;;;;;;;;;5015950;28;20037;-74
2022/03/20 04:29:21;;;;;;;14.68;9.05;;;;;;;;;;5020431;28;20053;-75
2022/03/20 04:31:48;;;;;;;15.57;8.35;;;;;;;;;;5016087;28;20033;-74
2022/03/20 04:34:14;;;;;;;16.60;8.57;;;;;;;;;;5014498;28;20026;-74
2022/03/20 04:36:42;;;;;;;19.98;10.20;;;;;;;;;;5016337;28;20481;-74
2022/03/20 04:39:08;;;;;;;17.40;8.75;;;;;;;;;;5018887;28;20079;-74
2022/03/20 04:41:34;;;;;;;16.20;8.95;;;;;;;;;;5027709;28;20445;-74
2022/03/20 04:44:00;;;;;;;18.40;11.02;;;;;;;;;;5026272;28;20041;-74
2022/03/20 04:46:26;;;;;;;19.98;8.90;;;;;;;;;;5002728;28;20120;-74
2022/03/20 04:59:53;;;;;;;19.75;10.30;;;;;;;;;;5030335;28;20555;-73
2022/03/20 05:02:20;;;;;;;17.33;9.05;;;;;;;;;;5027112;28;20080;-74
2022/03/20 05:04:46;;;;;;;21.92;10.30;;;;;;;;;;5028362;28;20029;-74
2022/03/20 05:07:12;;;;;;;18.88;10.43;;;;;;;;;;5026297;28;20037;-74
2022/03/20 05:15:08;;;;;;;21.77;10.70;;;;;;;;;;5029827;28;20516;-74
2022/03/20 05:17:35;;;;;;;18.27;9.48;;;;;;;;;;5018298;28;20530;-74
2022/03/20 05:20:01;;;;;;;19.55;10.25;;;;;;;;;;5025464;28;20401;-74
2022/03/20 05:22:27;;;;;;;14.25;9.50;;;;;;;;;;5027855;28;20389;-74
2022/03/20 05:24:53;;;;;;;29.50;10.23;;;;;;;;;;5024044;28;20025;-74
2022/03/20 05:27:19;;;;;;;22.70;11.23;;;;;;;;;;5025471;28;20120;-74
2022/03/20 05:29:45;;;;;;;21.90;9.23;;;;;;;;;;5013700;28;20033;-74
2022/03/20 05:32:12;;;;;;;18.33;10.75;;;;;;;;;;5017457;28;20044;-74
2022/03/20 05:34:38;;;;;;;21.58;9.73;;;;;;;;;;5028645;28;20026;-74
2022/03/20 05:37:06;;;;;;;18.67;10.82;;;;;;;;;;5025228;28;20129;-74
2022/03/20 05:39:33;;;;;;;16.88;10.45;;;;;;;;;;5027924;28;20076;-74
2022/03/20 05:41:59;;;;;;;18.23;10.32;;;;;;;;;;5029793;28;20088;-74
2022/03/20 05:44:27;;;;;;;20.75;10.65;;;;;;;;;;5028656;28;20025;-74
2022/03/20 05:46:54;;;;;;;19.52;10.90;;;;;;;;;;5023309;28;20120;-74
2022/03/20 05:49:20;;;;;;;18.30;10.55;;;;;;;;;;5027452;28;20060;-74
2022/03/20 05:51:47;;;;;;;17.70;10.30;;;;;;;;;;5034083;28;20049;-74
2022/03/20 05:54:15;;;;;;;18.80;10.70;;;;;;;;;;5032613;28;20384;-74
2022/03/20 05:59:26;;;;;;;20.08;11.18;;;;;;;;;;5025845;28;20060;-72
2022/03/20 06:01:52;;;;;;;19.48;11.13;;;;;;;;;;5023285;28;20432;-73
2022/03/20 06:04:18;;;;;;;20.67;10.73;;;;;;;;;;5030212;28;20041;-73
2022/03/20 06:06:44;;;;;;;17.05;10.50;;;;;;;;;;5032032;28;20042;-73
2022/03/20 06:09:11;;;;;;;19.27;11.57;;;;;;;;;;5031097;28;20029;-73
2022/03/20 06:11:37;;;;;;;19.23;10.85;;;;;;;;;;5028995;28;20033;-72
2022/03/20 06:14:08;;;;;;;23.65;14.07;;;;;;;;;;5015756;28;20045;-71
2022/03/20 06:16:34;;;;;;;19.92;11.25;;;;;;;;;;5029444;28;20099;-73
2022/03/20 06:19:00;;;;;;;21.13;12.13;;;;;;;;;;5025740;28;20473;-73
2022/03/20 06:21:27;;;;;;;16.52;11.25;;;;;;;;;;5029162;28;20365;-74
2022/03/20 06:23:54;;;;;;;19.15;11.15;;;;;;;;;;4997916;28;20073;-73
2022/03/20 06:26:20;;;;;;;24.05;11.73;;;;;;;;;;5030201;28;20025;-73
2022/03/20 06:28:48;;;;;;;22.08;11.77;;;;;;;;;;5030508;28;20037;-72
2022/03/20 06:31:15;;;;;;;20.70;10.63;;;;;;;;;;5030648;28;20044;-74
2022/03/20 06:33:43;;;;;;;18.83;10.75;;;;;;;;;;5025797;28;20524;-74
2022/03/20 06:36:10;;;;;;;18.60;12.43;;;;;;;;;;5033120;28;20028;-74
2022/03/20 06:38:36;;;;;;;21.65;10.60;;;;;;;;;;5013826;28;20033;-73
2022/03/20 06:41:02;;;;;;;27.70;15.98;;;;;;;;;;5032692;28;20125;-73
2022/03/20 06:43:29;;;;;;;24.23;14.35;;;;;;;;;;5020978;28;20077;-72
2022/03/20 06:45:56;;;;;;;21.35;11.73;;;;;;;;;;5025857;28;20059;-73
2022/03/20 06:48:22;;;;;;;20.45;12.60;;;;;;;;;;5030331;28;20033;-74
2022/03/20 06:50:48;;;;;;;15.63;10.27;;;;;;;;;;5033588;28;20409;-73
2022/03/20 06:53:15;;;;;;;24.27;11.90;;;;;;;;;;5027322;28;20083;-73
2022/03/20 06:55:41;;;;;;;17.58;11.30;;;;;;;;;;5024172;28;20032;-73
2022/03/20 06:58:07;;;;;;;21.52;12.40;;;;;;;;;;5020501;28;20034;-73
2022/03/20 07:00:33;;;;;;;23.52;11.57;;;;;;;;;;5028359;28;20050;-75
2022/03/20 07:03:01;;;;;;;19.35;12.38;;;;;;;;;;5019343;28;20482;-75
2022/03/20 07:05:28;;;;;;;19.05;11.10;;;;;;;;;;5030056;28;20026;-75
2022/03/20 07:07:54;;;;;;;23.63;10.80;;;;;;;;;;5024886;28;20045;-75
2022/03/20 07:10:24;;;;;;;16.73;10.75;;;;;;;;;;5013101;28;20045;-75
2022/03/20 07:12:51;;;;;;;23.83;11.48;;;;;;;;;;5029683;28;20113;-75
2022/03/20 07:15:18;;;;;;;23.90;11.82;;;;;;;;;;5009226;28;20083;-75
2022/03/20 07:17:45;;;;;;;20.52;11.93;;;;;;;;;;5028253;28;20041;-75
2022/03/20 07:20:13;;;;;;;21.25;11.63;;;;;;;;;;5027229;28;20037;-74
2022/03/20 07:22:40;;;;;;;16.30;10.60;;;;;;;;;;5024881;28;20025;-74
2022/03/20 07:30:37;;;;;;;24.85;15.30;;;;;;;;;;5026117;28;20152;-72
2022/03/20 07:33:03;;;;;;;30.38;15.18;;;;;;;;;;5026617;28;20029;-74
2022/03/20 07:35:30;;;;;;;19.98;11.52;;;;;;;;;;5028388;28;20056;-75
2022/03/20 07:37:56;;;;;;;23.20;12.50;;;;;;;;;;5030169;28;20056;-74
2022/03/20 07:40:22;;;;;;;17.27;11.18;;;;;;;;;;5022446;28;20034;-74
2022/03/20 07:42:49;;;;;;;22.17;11.75;;;;;;;;;;5026732;28;20045;-74
2022/03/20 07:45:15;;;;;;;19.38;10.23;;;;;;;;;;5016962;28;20087;-74
2022/03/20 07:47:41;;;;;;;26.58;12.63;;;;;;;;;;5030021;28;20037;-74
2022/03/20 07:50:08;;;;;;;18.13;11.35;;;;;;;;;;5031459;28;20762;-74
2022/03/20 07:52:35;;;;;;;20.60;12.40;;;;;;;;;;5025186;28;20091;-74
2022/03/20 07:55:01;;;;;;;16.02;11.48;;;;;;;;;;5031223;28;20036;-74
2022/03/20 07:57:29;;;;;;;22.52;11.68;;;;;;;;;;5028865;28;20366;-74
2022/03/20 07:59:56;;;;;;;17.30;11.52;;;;;;;;;;5026505;28;20030;-74
2022/03/20 08:02:23;;;;;;;16.30;11.70;;;;;;;;;;5029016;28;20400;-73
2022/03/20 08:04:51;;;;;;;21.13;12.20;;;;;;;;;;5031258;28;20022;-73
2022/03/20 08:07:19;;;;;;;19.77;12.65;;;;;;;;;;5027711;28;20048;-74
2022/03/20 08:09:46;;;;;;;20.05;12.13;;;;;;;;;;5029721;28;20608;-74
2022/03/20 08:12:12;;;;;;;20.65;12.13;;;;;;;;;;5029103;28;20025;-74
2022/03/20 08:14:39;;;;;;;21.08;12.18;;;;;;;;;;5020998;28;20033;-74
2022/03/20 08:17:08;;;;;;;18.23;12.27;;;;;;;;;;5023732;28;20096;-73
2022/03/20 08:19:35;;;;;;;22.63;12.93;;;;;;;;;;5039190;28;20028;-73
2022/03/20 08:22:03;;;;;;;20.35;13.07;;;;;;;;;;5029015;28;20037;-72
2022/03/20 08:24:29;;;;;;;27.58;17.90;;;;;;;;;;5022860;28;20037;-73
2022/03/20 08:26:55;;;;;;;22.35;13.05;;;;;;;;;;5006839;28;20038;-74
2022/03/20 08:29:21;;;;;;;20.20;11.43;;;;;;;;;;5023322;28;20033;-73
2022/03/20 08:31:47;;;;;;;26.35;12.50;;;;;;;;;;5016980;28;20056;-73
2022/03/20 08:34:17;;;;;;;20.30;12.85;;;;;;;;;;5022072;28;20425;-73
2022/03/20 08:36:47;;;;;;;22.52;12.98;;;;;;;;;;5029824;28;20029;-73
2022/03/20 08:39:13;;;;;;;20.50;12.88;;;;;;;;;;5031991;28;20029;-73
2022/03/20 08:41:39;;;;;;;19.63;12.85;;;;;;;;;;5027902;28;20573;-73
2022/03/20 08:44:06;;;;;;;18.92;12.48;;;;;;;;;;5028296;28;20124;-73
2022/03/20 08:46:32;;;;;;;20.77;13.23;;;;;;;;;;5029367;28;20581;-72
2022/03/20 08:49:03;;;;;;;17.83;12.30;;;;;;;;;;5038645;28;20036;-73
2022/03/20 08:51:29;;;;;;;23.15;13.13;;;;;;;;;;5030518;28;20436;-73
2022/03/20 08:53:55;;;;;;;25.75;13.48;;;;;;;;;;5026838;28;20440;-73
2022/03/20 08:56:21;;;;;;;20.27;12.20;;;;;;;;;;5030892;28;20358;-73
2022/03/20 08:58:50;;;;;;;25.73;13.52;;;;;;;;;;5029909;28;20037;-73
2022/03/20 09:01:17;;;;;;;22.58;13.70;;;;;;;;;;5020802;28;20121;-73
2022/03/20 09:03:45;;;;;;;18.63;12.75;;;;;;;;;;5025739;28;20029;-73
2022/03/20 09:06:12;;;;;;;22.00;14.05;;;;;;;;;;5026035;28;20037;-73
2022/03/20 09:08:38;;;;;;;23.92;12.85;;;;;;;;;;4993831;28;20033;-74
2022/03/20 09:11:04;;;;;;;17.98;12.48;;;;;;;;;;5017115;28;20041;-74
2022/03/20 09:13:31;;;;;;;20.67;14.52;;;;;;;;;;5030713;28;20022;-74
2022/03/20 09:18:59;;;;;;;18.83;13.00;;;;;;;;;;5027498;28;20037;-74
2022/03/20 09:21:28;;;;;;;21.65;12.98;;;;;;;;;;5028743;28;20059;-74
2022/03/20 09:23:55;;;;;;;25.75;14.07;;;;;;;;;;5031332;28;20017;-74
2022/03/20 09:26:21;;;;;;;27.25;13.73;;;;;;;;;;5033736;28;20030;-74
2022/03/20 09:28:48;;;;;;;22.70;13.60;;;;;;;;;;5026737;28;20401;-74
2022/03/20 09:31:15;;;;;;;28.30;14.23;;;;;;;;;;5005908;28;20026;-71
2022/03/20 09:33:41;;;;;;;23.95;14.25;;;;;;;;;;5021417;28;20021;-74
2022/03/20 09:36:07;;;;;;;22.27;13.40;;;;;;;;;;5029360;28;20477;-74
2022/03/20 09:38:34;;;;;;;21.55;13.80;;;;;;;;;;5029768;28;20013;-74
2022/03/20 09:41:03;;;;;;;20.52;14.25;;;;;;;;;;5033374;28;20041;-74
2022/03/20 09:43:31;;;;;;;22.88;14.13;;;;;;;;;;5013829;28;20426;-74
2022/03/20 09:45:57;;;;;;;18.17;12.95;;;;;;;;;;5032875;28;20029;-73
2022/03/20 09:48:23;;;;;;;23.92;15.57;;;;;;;;;;5030191;28;21688;-72
2022/03/20 09:50:50;;;;;;;20.23;13.77;;;;;;;;;;5033757;28;20026;-73
2022/03/20 09:53:16;;;;;;;23.17;15.43;;;;;;;;;;5015184;28;20034;-73
2022/03/20 09:55:43;;;;;;;20.65;14.63;;;;;;;;;;5033525;28;20056;-73
2022/03/20 09:58:10;;;;;;;30.83;14.93;;;;;;;;;;5031552;28;20033;-73
2022/03/20 10:00:36;;;;;;;18.33;13.40;;;;;;;;;;5032869;28;20041;-73
2022/03/20 10:03:17;;;;;;;19.23;13.32;;;;;;;;;;5033517;28;20043;-74
2022/03/20 10:05:44;;;;;;;23.40;15.38;;;;;;;;;;5033021;28;20032;-74
2022/03/20 10:08:17;;;;;;;18.77;13.38;;;;;;;;;;5018983;28;20025;-74
2022/03/20 10:10:43;;;;;;;20.48;14.02;;;;;;;;;;5027665;28;20685;-74
2022/03/20 10:13:12;;;;;;;24.42;13.82;;;;;;;;;;5004191;28;20461;-73
2022/03/20 10:15:39;;;;;;;20.63;14.15;;;;;;;;;;5027453;28;20120;-75
2022/03/20 10:18:05;;;;;;;21.88;15.88;;;;;;;;;;5032529;28;20052;-75
2022/03/20 10:20:35;;;;;;;21.73;14.35;;;;;;;;;;5029238;28;20022;-74
2022/03/20 10:23:01;;;;;;;22.80;14.90;;;;;;;;;;5026876;28;20036;-73
2022/03/20 10:25:27;;;;;;;22.02;13.88;;;;;;;;;;5032859;28;20065;-72
2022/03/20 10:27:57;;;;;;;23.13;14.60;;;;;;;;;;5028154;28;20045;-73
2022/03/20 10:30:23;;;;;;;21.88;14.60;;;;;;;;;;5032141;28;20436;-73
2022/03/20 10:32:50;;;;;;;23.27;15.18;;;;;;;;;;5032293;28;20037;-73
2022/03/20 10:35:19;;;;;;;22.48;14.48;;;;;;;;;;5032810;28;20385;-73
2022/03/20 10:37:54;;;;;;;22.00;14.57;;;;;;;;;;5032910;28;20045;-73
2022/03/20 10:40:20;;;;;;;26.20;15.52;;;;;;;;;;5031636;28;20132;-73
2022/03/20 10:43:08;;;;;;;26.27;15.85;;;;;;;;;;5038643;28;20087;-73
2022/03/20 10:45:53;;;;;;;21.92;15.85;;;;;;;;;;5022131;28;20026;-72
2022/03/20 10:48:25;;;;;;;22.30;15.05;;;;;;;;;;5032405;28;20101;-73
2022/03/20 10:50:51;;;;;;;21.92;14.63;;;;;;;;;;5027404;28;20083;-72
2022/03/20 10:53:17;;;;;;;23.08;15.68;;;;;;;;;;5032958;28;20092;-72
2022/03/20 10:55:43;;;;;;;25.75;15.93;;;;;;;;;;5029207;28;20060;-72
2022/03/20 10:58:19;;;;;;;25.83;15.95;;;;;;;;;;5031152;28;20033;-72
2022/03/20 11:00:48;;;;;;;24.65;15.43;;;;;;;;;;5031686;28;20091;-72
2022/03/20 11:03:21;;;;;;;20.75;15.35;;;;;;;;;;5032140;28;20117;-72
2022/03/20 11:05:47;;;;;;;22.30;15.57;;;;;;;;;;5031270;28;20029;-72
2022/03/20 11:08:13;;;;;;;27.15;16.70;;;;;;;;;;5032406;28;20030;-73
2022/03/20 11:10:41;;;;;;;27.50;16.00;;;;;;;;;;5013342;28;20056;-72
2022/03/20 11:13:08;;;;;;;25.45;16.85;;;;;;;;;;5031892;28;20053;-72
2022/03/20 11:15:34;;;;;;;23.23;16.15;;;;;;;;;;5026928;28;20070;-72
2022/03/20 11:18:01;;;;;;;20.80;15.75;;;;;;;;;;5031022;28;20041;-72
2022/03/20 11:20:29;;;;;;;25.90;17.23;;;;;;;;;;5029338;28;20048;-72
2022/03/20 11:22:55;;;;;;;26.23;17.48;;;;;;;;;;5025881;28;20079;-72
2022/03/20 11:25:25;;;;;;;21.88;15.45;;;;;;;;;;5031521;28;20033;-72
2022/03/20 11:27:55;;;;;;;23.45;16.40;;;;;;;;;;5029602;28;20025;-72
2022/03/20 11:30:23;;;;;;;24.13;15.27;;;;;;;;;;5014104;28;20058;-72
2022/03/20 11:32:50;;;;;;;27.08;16.55;;;;;;;;;;5031354;28;20041;-72
2022/03/20 11:35:16;;;;;;;28.13;15.98;;;;;;;;;;5031281;28;20020;-72
2022/03/20 11:37:43;;;;;;;24.23;16.90;;;;;;;;;;5014204;28;20038;-72
2022/03/20 11:40:19;;;;;;;27.33;17.38;;;;;;;;;;5027227;28;20357;-72
2022/03/20 11:42:46;;;;;;;31.92;16.73;;;;;;;;;;5031182;28;20558;-72
2022/03/20 11:45:17;;;;;;;27.48;17.30;;;;;;;;;;5030699;28;20025;-72
2022/03/20 11:47:44;;;;;;;26.50;16.73;;;;;;;;;;5021618;28;20025;-72
2022/03/20 11:50:21;;;;;;;27.65;17.42;;;;;;;;;;5021781;28;20029;-72
2022/03/20 11:52:53;;;;;;;23.17;15.57;;;;;;;;;;5022114;28;20116;-72
2022/03/20 11:55:26;;;;;;;31.45;15.82;;;;;;;;;;5031646;28;20025;-72
2022/03/20 11:57:53;;;;;;;25.35;16.50;;;;;;;;;;5028562;28;20026;-72
2022/03/20 12:00:23;;;;;;;25.42;16.92;;;;;;;;;;5027031;28;20026;-73
2022/03/20 12:02:54;;;;;;;24.55;17.05;;;;;;;;;;5026969;28;20493;-73
2022/03/20 12:05:39;;;;;;;20.58;14.52;;;;;;;;;;5015565;28;20026;-73
2022/03/20 12:08:11;;;;;;;28.38;17.38;;;;;;;;;;5024093;28;20038;-73
2022/03/20 12:11:06;;;;;;;36.65;18.20;;;;;;;;;;5031165;28;20148;-72
2022/03/20 12:13:51;;;;;;;25.60;17.33;;;;;;;;;;4954973;28;20044;-73
2022/03/20 12:16:35;;;;;;;24.58;16.98;;;;;;;;;;5030668;28;20045;-73
2022/03/20 12:19:08;;;;;;;26.98;16.65;;;;;;;;;;5021970;28;20057;-74
2022/03/20 12:21:34;;;;;;;;;;;;;;;;;;5034914;28;20022;-73
2022/03/20 12:24:00;;;;;;;30.65;17.65;;;;;;;;;;5001549;28;19928;-73
2022/03/20 12:26:43;;;;;;;27.17;17.17;;;;;;;;;;5026342;28;20715;-73
2022/03/20 12:29:28;;;;;;;24.08;17.05;;;;;;;;;;5023588;28;20038;-73
2022/03/20 12:32:02;;;;;;;21.13;15.75;;;;;;;;;;5024295;28;20037;-73
2022/03/20 12:34:30;;;;;;;23.70;16.30;;;;;;;;;;5027838;28;20026;-73
2022/03/20 12:37:16;;;;;;;26.48;16.58;;;;;;;;;;5030216;28;20104;-73
2022/03/20 12:39:54;;;;;;;25.80;16.63;;;;;;;;;;5027273;28;20362;-73
2022/03/20 12:42:21;;;;;;;24.20;15.25;;;;;;;;;;5030231;28;20045;-73
2022/03/20 12:44:48;;;;;;;29.02;18.35;;;;;;;;;;5027297;28;20025;-73
2022/03/20 12:47:18;;;;;;;29.20;18.05;;;;;;;;;;5036310;28;20041;-73
2022/03/20 12:49:46;;;;;;;27.95;16.92;;;;;;;;;;5031515;28;20030;-73
2022/03/20 12:52:13;;;;;;;33.40;18.02;;;;;;;;;;5022470;28;20029;-74
2022/03/20 12:54:39;;;;;;;28.30;17.52;;;;;;;;;;5027770;28;20037;-73
2022/03/20 12:57:05;;;;;;;31.25;17.73;;;;;;;;;;5039323;28;20032;-73
2022/03/20 12:59:31;;;;;;;28.90;16.60;;;;;;;;;;5042090;28;20045;-74
2022/03/20 13:02:04;;;;;;;25.23;17.98;;;;;;;;;;5024690;28;20072;-73
2022/03/20 13:04:30;;;;;;;22.80;16.70;;;;;;;;;;5033342;28;20026;-73
2022/03/20 13:06:56;;;;;;;29.70;18.02;;;;;;;;;;5032026;28;20061;-73
2022/03/20 13:09:22;;;;;;;25.17;17.27;;;;;;;;;;5046072;28;20033;-74
2022/03/20 13:11:48;;;;;;;31.98;17.63;;;;;;;;;;5027010;28;20033;-73
2022/03/20 13:14:15;;;;;;;29.05;16.95;;;;;;;;;;5030063;28;20045;-73
2022/03/20 13:17:10;;;;;;;28.33;17.95;;;;;;;;;;5023691;28;20470;-73
2022/03/20 13:19:37;;;;;;;27.38;16.08;;;;;;;;;;5021024;28;20057;-74
2022/03/20 13:22:10;;;;;;;25.73;16.48;;;;;;;;;;5034569;28;20033;-74
2022/03/20 13:24:37;;;;;;;24.98;16.70;;;;;;;;;;5032230;28;20096;-73
2022/03/20 13:27:05;;;;;;;28.85;17.83;;;;;;;;;;5032157;28;20029;-73
2022/03/20 13:29:31;;;;;;;25.85;17.63;;;;;;;;;;5034373;28;20041;-74
2022/03/20 13:32:05;;;;;;;31.92;18.98;;;;;;;;;;5018706;28;20110;-73
2022/03/20 13:34:34;;;;;;;25.83;18.00;;;;;;;;;;5030185;28;20366;-73
2022/03/20 13:37:07;;;;;;;24.42;17.27;;;;;;;;;;5031576;28;20140;-73
2022/03/20 13:39:34;;;;;;;27.48;18.42;;;;;;;;;;5026935;28;20425;-73
2022/03/20 13:42:00;;;;;;;27.40;18.05;;;;;;;;;;5033716;28;20041;-73
2022/03/20 13:44:37;;;;;;;25.15;17.33;;;;;;;;;;5032959;28;20107;-73
2022/03/20 13:47:03;;;;;;;25.02;17.08;;;;;;;;;;5032944;28;20021;-73
2022/03/20 13:49:29;;;;;;;26.50;17.65;;;;;;;;;;5030338;28;20034;-73
2022/03/20 13:51:56;;;;;;;25.10;16.60;;;;;;;;;;5034084;28;20033;-73
2022/03/20 13:54:23;;;;;;;27.58;18.20;;;;;;;;;;5033364;28;20021;-73
2022/03/20 13:57:09;;;;;;;29.40;19.35;;;;;;;;;;5029560;28;20520;-73
2022/03/20 13:59:49;;;;;;;30.90;18.27;;;;;;;;;;5033522;28;20030;-74
2022/03/20 14:02:15;;;;;;;23.48;17.23;;;;;;;;;;5034223;28;20049;-73
2022/03/20 14:04:41;;;;;;;30.15;18.00;;;;;;;;;;5015892;28;20038;-73
2022/03/20 14:07:18;;;;;;;29.90;17.65;;;;;;;;;;5020014;28;20038;-73
2022/03/20 14:09:45;;;;;;;31.33;19.33;;;;;;;;;;5029071;28;20026;-74
2022/03/20 14:12:29;;;;;;;23.05;16.63;;;;;;;;;;5033569;28;20026;-74
2022/03/20 14:15:09;;;;;;;26.23;17.38;;;;;;;;;;5023638;28;20049;-74
2022/03/20 14:17:50;;;;;;;29.85;19.33;;;;;;;;;;5026646;28;20036;-74
2022/03/20 14:20:22;;;;;;;27.88;17.88;;;;;;;;;;5030892;28;20033;-73
2022/03/20 14:22:57;;;;;;;28.75;17.98;;;;;;;;;;5032738;28;20041;-74
2022/03/20 14:25:53;;;;;;;27.75;17.45;;;;;;;;;;5032686;28;20067;-73
2022/03/20 14:28:26;;;;;;;25.52;17.85;;;;;;;;;;5011773;28;20112;-73
2022/03/20 14:39:28;;;;;;;22.65;16.58;;;;;;;;;;5032840;28;20044;-73
2022/03/20 14:41:55;;;;;;;28.88;19.33;;;;;;;;;;5031756;28;20030;-73
2022/03/20 14:44:28;;;;;;;28.10;16.83;;;;;;;;;;5025217;28;20041;-72
2022/03/20 14:46:56;;;;;;;27.13;17.52;;;;;;;;;;5025111;28;20025;-72
2022/03/20 14:49:25;;;;;;;28.48;17.88;;;;;;;;;;5030872;28;20117;-72
2022/03/20 14:51:53;;;;;;;31.23;18.63;;;;;;;;;;5028076;28;20029;-72
2022/03/20 14:54:19;;;;;;;29.17;19.70;;;;;;;;;;5026077;28;20151;-71
2022/03/20 14:56:45;;;;;;;29.98;19.80;;;;;;;;;;5026117;28;20787;-72
2022/03/20 14:59:12;;;;;;;35.55;21.02;;;;;;;;;;5028694;28;20101;-72
2022/03/20 15:01:43;;;;;;;27.58;18.88;;;;;;;;;;5010018;28;20041;-73
2022/03/20 15:04:12;;;;;;;25.35;18.42;;;;;;;;;;5026040;28;20052;-73
2022/03/20 15:06:39;;;;;;;31.38;17.00;;;;;;;;;;5030802;28;20107;-73
2022/03/20 15:11:49;;;;;;;27.63;17.23;;;;;;;;;;5014297;28;20075;-73
2022/03/20 15:14:16;;;;;;;37.97;18.25;;;;;;;;;;5030927;28;20025;-73
2022/03/20 15:16:42;;;;;;;29.10;18.90;;;;;;;;;;5029422;28;20419;-73